Time;durP1;ratioP1;P1;durP2;ratioP2;P2;SDS_P1;SDS_P2;PMS_P1;PMS_P2;Temp;Humidity;BMP_temperature;BMP_pressure;BME280_temperature;BME280_humidity;BME280_pressure;Samples;Min_cycle;Max_cycle;Signal;HPM_P1;HPM_P2
2022/04/17 00:00:27;;;;;;;;;;;;;;;13.97;51.22;94958.91;5135081;27;967;-49
2022/04/17 00:02:53;;;;;;;;;;;;;;;14.00;50.95;94961.22;5135020;27;1051;-49
2022/04/17 00:05:19;;;;;;;;;;;;;;;13.98;51.33;94947.13;5134298;27;1016;-49
2022/04/17 00:07:46;;;;;;;;;;;;;;;13.93;51.39;94942.31;5135032;27;1036;-49
2022/04/17 00:10:12;;;;;;;;;;;;;;;13.87;51.79;94935.00;5134964;27;1058;-49
2022/04/17 00:12:41;;;;;;;;;;;;;;;13.78;51.76;94931.56;5134802;27;1048;-49
2022/04/17 00:15:09;;;;;;;;;;;;;;;13.81;51.50;94931.22;5134622;27;1071;-49
2022/04/17 00:17:38;;;;;;;;;;;;;;;13.76;51.91;94941.69;5134743;27;948;-49
2022/04/17 00:20:05;;;;;;;;;;;;;;;13.77;52.24;94939.81;5134700;27;1026;-49
2022/04/17 00:22:31;;;;;;;;;;;;;;;13.70;52.85;94929.00;5134336;27;1241;-49
2022/04/17 00:24:59;;;;;;;;;;;;;;;13.74;52.37;94911.47;5134847;27;1024;-49
2022/04/17 00:27:25;;;;;;;;;;;;;;;13.77;52.33;94915.63;5133529;27;1015;-49
2022/04/17 00:29:51;;;;;;;;;;;;;;;13.75;52.58;94907.75;5134811;28;1031;-49
2022/04/17 00:32:17;;;;;;;;;;;;;;;13.69;52.41;94910.38;5134446;28;1198;-49
2022/04/17 00:34:44;;;;;;;;;;;;;;;13.68;52.79;94920.28;5134525;28;980;-49
2022/04/17 00:37:11;;;;;;;;;;;;;;;13.63;52.66;94911.94;5134691;28;996;-49
2022/04/17 00:39:37;;;;;;;;;;;;;;;13.67;52.60;94911.38;5134311;28;1984;-49
2022/04/17 00:42:05;;;;;;;;;;;;;;;13.66;52.65;94911.59;5134362;28;1035;-49
2022/04/17 00:44:32;;;;;;;;;;;;;;;13.65;52.85;94910.72;5134267;28;1821;-49
2022/04/17 00:46:58;;;;;;;;;;;;;;;13.49;53.45;94913.63;5134253;28;936;-49
2022/04/17 00:49:24;;;;;;;;;;;;;;;13.54;53.33;94918.44;5134364;28;1039;-49
2022/04/17 00:51:51;;;;;;;;;;;;;;;13.55;53.49;94904.81;5134542;28;1055;-49
2022/04/17 00:54:19;;;;;;;;;;;;;;;13.46;53.20;94903.25;5134547;28;1028;-49
2022/04/17 00:56:46;;;;;;;;;;;;;;;13.44;53.80;94894.53;5134445;28;1024;-49
2022/04/17 00:59:13;;;;;;;;;;;;;;;13.40;53.66;94893.25;5134037;28;1909;-49
2022/04/17 01:01:39;;;;;;;;;;;;;;;13.36;53.70;94889.25;5134346;28;1038;-49
2022/04/17 01:04:06;;;;;;;;;;;;;;;13.25;53.91;94885.97;5134499;28;1019;-49
2022/04/17 01:06:32;;;;;;;;;;;;;;;13.27;54.14;94881.25;5134368;28;1076;-49
2022/04/17 01:08:59;;;;;;;;;;;;;;;13.38;53.48;94888.06;5134079;28;1028;-49
2022/04/17 01:11:26;;;;;;;;;;;;;;;13.39;53.67;94894.25;5134282;28;1027;-48
2022/04/17 01:13:53;;;;;;;;;;;;;;;13.40;53.92;94894.06;5134282;28;957;-49
2022/04/17 01:16:24;;;;;;;;;;;;;;;13.42;53.89;94899.25;5134345;27;975;-49
2022/04/17 01:18:56;;;;;;;;;;;;;;;13.36;53.78;94892.78;5137914;27;1905;-49
2022/04/17 01:21:23;;;;;;;;;;;;;;;13.27;54.34;94901.91;5137894;27;1019;-49
2022/04/17 01:29:19;;;;;;;;;;;;;;;13.32;54.36;94910.28;5138087;27;1035;-49
2022/04/17 01:31:45;;;;;;;;;;;;;;;13.37;53.66;94904.34;5137627;27;1043;-49
2022/04/17 01:34:13;;;;;;;;;;;;;;;13.36;53.72;94908.88;5136799;27;1020;-49
2022/04/17 01:36:39;;;;;;;;;;;;;;;13.32;54.02;94910.28;5137901;27;1055;-49
2022/04/17 01:39:05;;;;;;;;;;;;;;;13.34;53.51;94918.16;5137627;27;1917;-49
2022/04/17 01:41:31;;;;;;;;;;;;;;;13.33;53.73;94916.47;5137529;27;1953;-49
2022/04/17 01:43:57;;;;;;;;;;;;;;;13.29;53.87;94903.38;5137521;27;999;-49
2022/04/17 01:46:23;;;;;;;;;;;;;;;13.28;54.14;94906.25;5137398;27;1015;-49
2022/04/17 01:48:49;;;;;;;;;;;;;;;13.27;54.31;94901.91;5137714;27;984;-49
2022/04/17 01:51:15;;;;;;;;;;;;;;;13.23;54.34;94892.56;5137683;27;1022;-49
2022/04/17 01:53:41;;;;;;;;;;;;;;;13.27;53.90;94904.59;5137594;27;1030;-49
2022/04/17 01:56:07;;;;;;;;;;;;;;;13.28;53.96;94901.72;5137602;27;1139;-49
2022/04/17 01:58:33;;;;;;;;;;;;;;;13.27;54.01;94896.53;5137115;27;1994;-49
2022/04/17 02:00:59;;;;;;;;;;;;;;;13.13;54.21;94894.66;5137125;27;1079;-49
2022/04/17 02:03:25;;;;;;;;;;;;;;;13.09;54.38;94896.91;5137343;27;1007;-49
2022/04/17 02:05:50;;;;;;;;;;;;;;;13.08;54.71;94889.84;5137435;27;1035;-49
2022/04/17 02:08:17;;;;;;;;;;;;;;;13.05;54.61;94888.38;5137344;27;960;-49
2022/04/17 02:10:43;;;;;;;;;;;;;;;13.02;55.42;94885.22;5137078;27;964;-49
2022/04/17 02:13:09;;;;;;;;;;;;;;;12.88;55.44;94886.84;5137121;27;992;-49
2022/04/17 02:15:35;;;;;;;;;;;;;;;12.93;54.94;94887.13;5137150;27;1035;-49
2022/04/17 02:18:01;;;;;;;;;;;;;;;12.96;54.80;94885.94;5136821;27;1986;-49
2022/04/17 02:20:27;;;;;;;;;;;;;;;12.98;54.98;94882.06;5137040;27;1042;-49
2022/04/17 02:22:53;;;;;;;;;;;;;;;12.95;54.81;94884.28;5136747;27;1095;-49
2022/04/17 02:25:20;;;;;;;;;;;;;;;12.83;55.54;94881.19;5136691;27;1856;-49
2022/04/17 02:27:46;;;;;;;;;;;;;;;12.77;55.74;94881.94;5136172;27;1067;-49
2022/04/17 02:30:12;;;;;;;;;;;;;;;12.81;55.72;94877.88;5136562;27;1023;-49
2022/04/17 02:32:38;;;;;;;;;;;;;;;12.76;56.12;94878.38;5136813;27;1031;-49
2022/04/17 02:35:04;;;;;;;;;;;;;;;12.69;55.87;94878.28;5136514;27;1079;-49
2022/04/17 02:37:30;;;;;;;;;;;;;;;12.75;55.85;94884.78;5136754;27;1027;-49
2022/04/17 02:39:56;;;;;;;;;;;;;;;12.75;56.12;94874.06;5136320;27;1899;-49
2022/04/17 02:42:22;;;;;;;;;;;;;;;12.58;56.81;94870.69;5136339;27;1052;-49
2022/04/17 02:44:48;;;;;;;;;;;;;;;12.58;56.62;94873.34;5136247;27;1148;-48
2022/04/17 02:49:58;;;;;;;;;;;;;;;12.50;57.71;94878.75;5136242;27;1086;-49
2022/04/17 02:52:24;;;;;;;;;;;;;;;12.50;57.71;94870.72;5136326;27;1219;-49
2022/04/17 02:54:53;;;;;;;;;;;;;;;12.50;57.59;94876.94;5136414;27;1043;-49
2022/04/17 02:57:20;;;;;;;;;;;;;;;12.52;57.81;94873.22;5135927;27;1036;-49
2022/04/17 02:59:46;;;;;;;;;;;;;;;12.44;57.83;94874.13;5136201;27;1996;-49
2022/04/17 03:07:40;;;;;;;;;;;;;;;12.22;58.95;94879.31;5135909;27;1031;-49
2022/04/17 03:10:07;;;;;;;;;;;;;;;12.28;58.08;94885.81;5135778;27;1203;-49
2022/04/17 03:12:35;;;;;;;;;;;;;;;12.24;58.67;94890.69;5135954;27;1015;-49
2022/04/17 03:15:02;;;;;;;;;;;;;;;12.27;58.45;94885.00;5135884;27;969;-49
2022/04/17 03:17:28;;;;;;;;;;;;;;;12.26;57.86;94885.16;5135749;27;1053;-49
2022/04/17 03:19:54;;;;;;;;;;;;;;;12.24;57.84;94885.34;5135616;27;1894;-49
2022/04/17 03:22:21;;;;;;;;;;;;;;;12.21;58.31;94882.19;5135422;27;1103;-49
2022/04/17 03:24:47;;;;;;;;;;;;;;;12.15;58.54;94880.22;5135842;27;1035;-49
2022/04/17 03:27:13;;;;;;;;;;;;;;;12.16;58.63;94874.69;5135370;27;1006;-49
2022/04/17 03:29:38;;;;;;;;;;;;;;;12.10;58.54;94878.91;5135594;27;1048;-49
2022/04/17 03:32:05;;;;;;;;;;;;;;;12.06;58.74;94874.88;5135375;27;933;-49
2022/04/17 03:34:31;;;;;;;;;;;;;;;12.10;58.42;94876.22;5135300;27;1110;-49
2022/04/17 03:36:58;;;;;;;;;;;;;;;12.09;58.34;94873.72;5135282;27;1023;-49
2022/04/17 03:39:24;;;;;;;;;;;;;;;12.05;58.47;94872.41;5134653;27;1894;-49
2022/04/17 03:41:50;;;;;;;;;;;;;;;11.97;59.20;94881.31;5135102;27;1082;-49
2022/04/17 03:44:17;;;;;;;;;;;;;;;11.92;59.28;94878.34;5135468;27;980;-49
2022/04/17 03:46:43;;;;;;;;;;;;;;;11.91;59.44;94877.50;5135112;27;1237;-49
2022/04/17 03:49:09;;;;;;;;;;;;;;;11.91;59.47;94882.00;5135390;27;1027;-49
2022/04/17 03:51:36;;;;;;;;;;;;;;;11.84;59.67;94881.03;5135005;27;1027;-49
2022/04/17 03:54:02;;;;;;;;;;;;;;;11.88;59.37;94888.53;5135023;27;1172;-49
2022/04/17 03:56:28;;;;;;;;;;;;;;;11.86;59.64;94892.41;5133645;27;1024;-49
2022/04/17 03:58:54;;;;;;;;;;;;;;;11.79;60.52;94891.44;5135008;27;1909;-49
2022/04/17 04:01:20;;;;;;;;;;;;;;;11.71;59.99;94889.63;5135232;27;1810;-49
2022/04/17 04:03:47;;;;;;;;;;;;;;;11.65;60.86;94895.69;5134879;27;1039;-49
2022/04/17 04:06:13;;;;;;;;;;;;;;;11.65;61.73;94898.38;5135062;27;979;-49
2022/04/17 04:08:39;;;;;;;;;;;;;;;11.69;61.24;94897.00;5134743;27;1031;-49
2022/04/17 04:11:05;;;;;;;;;;;;;;;11.73;60.96;94893.78;5134920;27;968;-49
2022/04/17 04:13:32;;;;;;;;;;;;;;;11.70;61.47;94890.63;5134882;27;1027;-49
2022/04/17 04:15:58;;;;;;;;;;;;;;;11.50;63.09;94885.69;5134677;27;1012;-48
2022/04/17 04:18:24;;;;;;;;;;;;;;;11.52;62.33;94889.03;5134523;27;1902;-49
2022/04/17 04:20:50;;;;;;;;;;;;;;;11.55;63.61;94887.00;5134557;27;1075;-49
2022/04/17 04:23:19;;;;;;;;;;;;;;;11.45;64.10;94888.03;5134528;27;1636;-49
2022/04/17 04:25:45;;;;;;;;;;;;;;;11.36;65.07;94886.41;5134457;27;1027;-49
2022/04/17 04:30:56;;;;;;;;;;;;;;;11.25;66.47;94884.94;5134838;28;1202;-49
2022/04/17 04:33:22;;;;;;;;;;;;;;;11.07;67.66;94890.50;5134471;27;971;-48
2022/04/17 04:35:48;;;;;;;;;;;;;;;11.00;68.61;94894.03;5134714;28;987;-48
2022/04/17 04:38:14;;;;;;;;;;;;;;;11.11;67.11;94897.16;5134555;28;1909;-48
2022/04/17 04:40:40;;;;;;;;;;;;;;;11.16;68.05;94899.34;5134329;28;1083;-48
2022/04/17 04:43:06;;;;;;;;;;;;;;;11.11;67.08;94888.31;5134345;28;1011;-48
2022/04/17 04:49:29;;;;;;;;;;;;;;;11.02;67.36;94887.50;5134193;28;1122;-48
2022/04/17 04:51:02;;;;;;;;;;;;;;;11.06;67.71;94878.13;5135821;27;1514;-48
2022/04/17 04:53:28;;;;;;;;;;;;;;;11.00;68.59;94888.66;5138776;27;1050;-48
2022/04/17 04:55:54;;;;;;;;;;;;;;;10.94;70.25;94874.97;5138640;27;999;-48
2022/04/17 04:58:20;;;;;;;;;;;;;;;10.97;69.16;94884.50;5138596;27;1975;-48
2022/04/17 05:00:46;;;;;;;;;;;;;;;10.83;70.17;94886.03;5138325;27;944;-48
2022/04/17 05:03:12;;;;;;;;;;;;;;;10.72;70.70;94884.53;5138166;27;1035;-48
2022/04/17 05:05:38;;;;;;;;;;;;;;;10.83;70.38;94874.47;5138531;27;983;-48
2022/04/17 05:08:04;;;;;;;;;;;;;;;10.81;70.23;94889.88;5138483;27;1004;-48
2022/04/17 05:10:30;;;;;;;;;;;;;;;10.77;69.87;94888.53;5138400;27;1038;-48
2022/04/17 05:12:57;;;;;;;;;;;;;;;10.86;70.39;94892.88;5138120;27;1078;-48
2022/04/17 05:15:23;;;;;;;;;;;;;;;10.87;70.33;94894.53;5138289;27;999;-48
2022/04/17 05:17:49;;;;;;;;;;;;;;;10.88;69.32;94882.84;5138328;27;984;-48
2022/04/17 05:20:15;;;;;;;;;;;;;;;10.97;69.57;94886.34;5137981;27;1040;-48
2022/04/17 05:22:43;;;;;;;;;;;;;;;10.85;69.72;94896.53;5137660;27;1210;-48
2022/04/17 05:25:09;;;;;;;;;;;;;;;10.87;70.18;94900.75;5137868;27;949;-48
2022/04/17 05:27:35;;;;;;;;;;;;;;;10.94;70.32;94885.66;5137807;27;1012;-48
2022/04/17 05:30:01;;;;;;;;;;;;;;;10.94;70.53;94891.00;5138015;27;1016;-48
2022/04/17 05:32:27;;;;;;;;;;;;;;;11.00;69.61;94891.34;5137945;27;1192;-48
2022/04/17 05:34:53;;;;;;;;;;;;;;;10.98;70.14;94891.50;5136685;27;1048;-48
2022/04/17 05:37:19;;;;;;;;;;;;;;;10.97;69.88;94894.38;5137647;27;1097;-48
2022/04/17 05:39:45;;;;;;;;;;;;;;;10.95;70.35;94894.53;5137779;27;2000;-48
2022/04/17 05:42:12;;;;;;;;;;;;;;;10.77;71.76;94902.72;5137649;27;971;-48
2022/04/17 05:44:38;;;;;;;;;;;;;;;10.87;71.72;94894.53;5137708;27;1016;-48
2022/04/17 05:47:04;;;;;;;;;;;;;;;10.86;70.68;94900.91;5137710;27;955;-48
2022/04/17 05:49:30;;;;;;;;;;;;;;;10.87;72.12;94897.19;5138058;27;924;-48
2022/04/17 05:51:57;;;;;;;;;;;;;;;10.89;71.59;94898.72;5137648;27;971;-48
2022/04/17 05:54:23;;;;;;;;;;;;;;;10.88;72.00;94894.38;5137216;27;1081;-48
2022/04/17 05:56:49;;;;;;;;;;;;;;;10.90;71.85;94889.69;5137549;27;1055;-48
2022/04/17 05:59:15;;;;;;;;;;;;;;;10.95;71.63;94891.88;5137076;27;1986;-48
2022/04/17 06:01:41;;;;;;;;;;;;;;;10.90;71.36;94891.53;5137277;27;1209;-48
2022/04/17 06:04:07;;;;;;;;;;;;;;;10.97;70.36;94889.84;5136415;27;1961;-48
2022/04/17 06:06:33;;;;;;;;;;;;;;;10.97;70.76;94884.50;5137352;27;1034;-48
2022/04/17 06:09:00;;;;;;;;;;;;;;;11.02;71.26;94879.50;5137290;27;972;-48
2022/04/17 06:11:26;;;;;;;;;;;;;;;10.96;70.96;94872.13;5137059;27;1024;-48
2022/04/17 06:13:52;;;;;;;;;;;;;;;10.92;72.31;94881.50;5136860;27;1055;-48
2022/04/17 06:16:18;;;;;;;;;;;;;;;10.82;71.65;94879.00;5136885;27;1083;-48
2022/04/17 06:18:44;;;;;;;;;;;;;;;10.85;72.64;94881.34;5135747;27;1994;-48
2022/04/17 06:21:11;;;;;;;;;;;;;;;10.79;71.33;94876.66;5136843;27;1016;-48
2022/04/17 06:23:37;;;;;;;;;;;;;;;10.75;73.34;94876.16;5136583;27;1087;-48
2022/04/17 06:26:04;;;;;;;;;;;;;;;10.78;72.37;94868.81;5136999;27;1112;-48
2022/04/17 06:28:30;;;;;;;;;;;;;;;10.84;73.30;94876.16;5136882;27;963;-48
2022/04/17 06:30:56;;;;;;;;;;;;;;;10.83;72.64;94877.16;5136871;27;1023;-48
2022/04/17 06:33:23;;;;;;;;;;;;;;;10.87;73.00;94883.84;5136789;27;1030;-48
2022/04/17 06:35:48;;;;;;;;;;;;;;;10.75;71.88;94880.69;5136798;27;1042;-48
2022/04/17 06:38:15;;;;;;;;;;;;;;;10.79;72.95;94891.88;5136316;27;1901;-48
2022/04/17 06:40:42;;;;;;;;;;;;;;;10.79;72.14;94886.53;5136581;27;1036;-48
2022/04/17 06:43:08;;;;;;;;;;;;;;;10.74;72.39;94887.88;5136329;27;1068;-48
2022/04/17 06:45:35;;;;;;;;;;;;;;;10.70;73.44;94889.22;5136627;27;1035;-48
2022/04/17 06:48:15;;;;;;;;;;;;;;;10.71;74.02;94882.84;5136476;27;972;-48
2022/04/17 06:50:41;;;;;;;;;;;;;;;10.80;73.00;94890.88;5136352;27;1048;-48
2022/04/17 06:53:07;;;;;;;;;;;;;;;10.86;71.91;94892.88;5136476;27;1035;-48
2022/04/17 06:55:33;;;;;;;;;;;;;;;10.85;72.44;94893.88;5136048;27;1040;-48
2022/04/17 06:58:00;;;;;;;;;;;;;;;10.94;71.07;94887.50;5136276;27;1914;-48
2022/04/17 07:00:26;;;;;;;;;;;;;;;10.91;71.87;94890.53;5136103;27;1864;-48
2022/04/17 07:02:52;;;;;;;;;;;;;;;10.94;72.40;94884.84;5136415;27;996;-48
2022/04/17 07:05:18;;;;;;;;;;;;;;;10.95;72.65;94878.50;5135891;27;1024;-48
2022/04/17 07:07:44;;;;;;;;;;;;;;;10.97;72.71;94876.47;5136030;27;952;-48
2022/04/17 07:10:10;;;;;;;;;;;;;;;11.03;72.06;94878.47;5135703;27;1852;-48
2022/04/17 07:12:37;;;;;;;;;;;;;;;11.03;72.65;94874.97;5135706;27;1067;-48
2022/04/17 07:15:05;;;;;;;;;;;;;;;11.00;73.15;94877.97;5135701;27;1114;-48
2022/04/17 07:17:32;;;;;;;;;;;;;;;10.96;72.40;94879.31;5135790;27;1040;-48
2022/04/17 07:19:58;;;;;;;;;;;;;;;10.87;73.45;94884.69;5135707;27;1917;-48
2022/04/17 07:22:24;;;;;;;;;;;;;;;10.87;73.46;94879.34;5135470;27;1091;-48
2022/04/17 07:24:53;;;;;;;;;;;;;;;10.90;73.10;94878.97;5135709;27;968;-48
2022/04/17 07:27:20;;;;;;;;;;;;;;;10.76;73.07;94871.66;5135447;27;1011;-48
2022/04/17 07:29:46;;;;;;;;;;;;;;;10.78;74.14;94875.00;5135455;27;1916;-48
2022/04/17 07:32:12;;;;;;;;;;;;;;;10.84;73.57;94874.31;5135722;27;1059;-50
2022/04/17 07:34:38;;;;;;;;;;;;;;;10.75;73.97;94878.00;5135453;27;1034;-48
2022/04/17 07:37:05;;;;;;;;;;;;;;;10.83;73.25;94872.66;5135365;27;964;-48
2022/04/17 07:39:31;;;;;;;;;;;;;;;10.89;72.65;94871.97;5134998;27;1906;-48
2022/04/17 07:41:59;;;;;;;;;;;;;;;11.07;72.48;94869.09;5135204;27;1068;-48
2022/04/17 07:44:27;;;;;;;;;;;;;;;10.98;73.16;94870.09;5135146;27;1028;-48
2022/04/17 07:46:53;;;;;;;;;;;;;;;10.90;72.26;94865.59;5135121;27;1105;-48
2022/04/17 07:49:18;;;;;;;;;;;;;;;10.94;73.98;94866.09;5135191;27;1043;-49
2022/04/17 07:51:44;;;;;;;;;;;;;;;10.92;71.92;94865.44;5135125;27;1052;-49
2022/04/17 07:54:10;;;;;;;;;;;;;;;10.84;71.72;94866.28;5134885;27;1007;-48
2022/04/17 07:56:36;;;;;;;;;;;;;;;10.73;73.02;94870.16;5135233;27;964;-49
2022/04/17 07:59:04;;;;;;;;;;;;;;;10.74;73.31;94873.69;5135128;27;1909;-48
2022/04/17 08:01:33;;;;;;;;;;;;;;;10.74;74.02;94857.63;5135167;27;988;-48
2022/04/17 08:03:59;;;;;;;;;;;;;;;10.78;72.27;94860.81;5134782;27;1096;-49
2022/04/17 08:06:25;;;;;;;;;;;;;;;10.77;72.66;94862.63;5134761;27;1087;-48
2022/04/17 08:08:52;;;;;;;;;;;;;;;10.70;73.32;94865.16;5134546;27;1075;-49
2022/04/17 08:11:18;;;;;;;;;;;;;;;10.70;72.91;94859.81;5134656;27;1036;-48
2022/04/17 08:13:46;;;;;;;;;;;;;;;10.77;72.52;94851.09;5134728;27;1971;-48
2022/04/17 08:16:13;;;;;;;;;;;;;;;10.80;72.56;94856.94;5134791;27;1016;-48
2022/04/17 08:18:39;;;;;;;;;;;;;;;10.73;73.32;94855.94;5134550;27;1910;-48
2022/04/17 08:21:05;;;;;;;;;;;;;;;10.75;72.65;94857.44;5134619;27;1031;-48
2022/04/17 08:23:31;;;;;;;;;;;;;;;10.70;73.06;94862.47;5134252;27;1210;-48
2022/04/17 08:25:57;;;;;;;;;;;;;;;10.68;73.77;94856.47;5134414;27;1122;-48
2022/04/17 08:28:23;;;;;;;;;;;;;;;10.75;72.39;94849.41;5134634;27;1035;-48
2022/04/17 08:30:49;;;;;;;;;;;;;;;10.80;71.94;94861.47;5134702;28;1035;-48
2022/04/17 08:33:16;;;;;;;;;;;;;;;10.79;71.59;94859.78;5134360;27;1197;-48
2022/04/17 08:35:42;;;;;;;;;;;;;;;10.74;71.50;94855.78;5134351;28;1036;-48
2022/04/17 08:38:09;;;;;;;;;;;;;;;10.74;70.57;94861.13;5134132;28;1905;-48
2022/04/17 08:40:37;;;;;;;;;;;;;;;10.74;71.22;94860.31;5134303;28;1023;-48
2022/04/17 08:43:03;;;;;;;;;;;;;;;10.77;70.93;94859.13;5134276;28;1088;-49
2022/04/17 08:45:29;;;;;;;;;;;;;;;10.67;71.84;94862.81;5134423;28;961;-48
2022/04/17 08:47:56;;;;;;;;;;;;;;;10.68;71.43;94859.13;5134345;28;1030;-48
2022/04/17 08:50:22;;;;;;;;;;;;;;;10.66;72.08;94863.81;5134212;28;925;-48
2022/04/17 08:52:49;;;;;;;;;;;;;;;10.75;71.29;94859.28;5134053;28;1011;-48
2022/04/17 08:55:15;;;;;;;;;;;;;;;10.82;71.59;94854.09;5134141;28;1028;-48
2022/04/17 08:57:41;;;;;;;;;;;;;;;10.82;71.26;94852.25;5134478;28;1024;-48
2022/04/17 09:00:10;;;;;;;;;;;;;;;10.72;71.36;94849.78;5134102;28;1992;-48
2022/04/17 09:02:36;;;;;;;;;;;;;;;10.74;71.16;94846.94;5134259;28;1055;-48
2022/04/17 09:05:06;;;;;;;;;;;;;;;10.75;70.88;94852.09;5134238;28;1019;-49
2022/04/17 09:07:39;;;;;;;;;;;;;;;10.69;70.69;94844.75;5134210;28;944;-48
2022/04/17 09:10:05;;;;;;;;;;;;;;;10.70;71.37;94842.94;5134338;28;944;-49
2022/04/17 09:12:31;;;;;;;;;;;;;;;10.67;71.87;94835.25;5134219;28;969;-49
2022/04/17 09:14:57;;;;;;;;;;;;;;;10.66;71.10;94829.06;5134145;28;984;-49
2022/04/17 09:17:34;;;;;;;;;;;;;;;10.68;69.96;94832.41;5134294;28;975;-49
2022/04/17 09:20:01;;;;;;;;;;;;;;;10.70;70.43;94825.03;5134044;28;1985;-49
2022/04/17 09:22:49;;;;;;;;;;;;;;;10.67;72.24;94819.19;5133927;28;1291;-49
2022/04/17 09:25:15;;;;;;;;;;;;;;;10.71;71.48;94817.84;5133938;28;1079;-48
2022/04/17 09:28:01;;;;;;;;;;;;;;;10.68;71.45;94816.38;5134220;27;1004;-49
2022/04/17 09:30:29;;;;;;;;;;;;;;;10.72;71.16;94798.97;5133693;28;1874;-48
2022/04/17 09:32:56;;;;;;;;;;;;;;;10.77;71.83;94798.44;5134163;28;960;-48
2022/04/17 09:35:23;;;;;;;;;;;;;;;10.77;71.25;94792.28;5133857;28;1024;-48
2022/04/17 09:37:53;;;;;;;;;;;;;;;10.75;72.61;94781.75;5134648;27;1028;-48
2022/04/17 09:40:20;;;;;;;;;;;;;;;10.81;72.20;94780.22;5137463;27;1902;-48
2022/04/17 09:42:50;;;;;;;;;;;;;;;10.90;72.08;94772.00;5137504;27;1027;-48
2022/04/17 09:45:16;;;;;;;;;;;;;;;10.83;72.73;94781.75;5137477;27;1015;-48
2022/04/17 09:47:54;;;;;;;;;;;;;;;10.84;72.72;94783.38;5137408;27;1036;-49
2022/04/17 09:50:28;;;;;;;;;;;;;;;10.92;71.67;94779.84;5137580;27;1059;-49
2022/04/17 09:52:56;;;;;;;;;;;;;;;10.91;71.76;94775.53;5137605;27;975;-48
2022/04/17 09:55:26;;;;;;;;;;;;;;;10.88;71.77;94778.53;5137292;27;1028;-48
2022/04/17 09:57:55;;;;;;;;;;;;;;;10.91;72.33;94775.53;5137245;27;1086;-48
2022/04/17 10:00:23;;;;;;;;;;;;;;;10.94;72.31;94772.50;5137341;27;1898;-48
2022/04/17 10:02:49;;;;;;;;;;;;;;;10.88;72.88;94774.00;5137469;27;983;-48
2022/04/17 10:05:16;;;;;;;;;;;;;;;10.84;72.27;94772.69;5137267;27;1019;-48
2022/04/17 10:07:51;;;;;;;;;;;;;;;10.91;71.10;94770.19;5137271;27;1044;-49
2022/04/17 10:10:17;;;;;;;;;;;;;;;10.93;71.50;94768.16;5137021;27;1072;-48
2022/04/17 10:12:45;;;;;;;;;;;;;;;10.88;72.78;94762.50;5137015;27;1205;-48
2022/04/17 10:15:12;;;;;;;;;;;;;;;10.97;71.99;94765.97;5136944;27;1096;-48
2022/04/17 10:17:39;;;;;;;;;;;;;;;10.88;73.14;94757.97;5136944;27;1872;-48
2022/04/17 10:20:08;;;;;;;;;;;;;;;10.88;72.90;94760.63;5136860;27;2003;-48
2022/04/17 10:22:35;;;;;;;;;;;;;;;10.89;71.78;94766.84;5136502;27;1107;-48
2022/04/17 10:25:02;;;;;;;;;;;;;;;10.91;72.20;94751.47;5137042;27;1205;-48
2022/04/17 10:27:36;;;;;;;;;;;;;;;10.98;72.40;94752.41;5137028;27;976;-48
2022/04/17 10:30:04;;;;;;;;;;;;;;;11.03;71.82;94747.38;5136717;27;1099;-49
2022/04/17 10:32:38;;;;;;;;;;;;;;;10.97;72.29;94750.75;5136734;27;956;-48
2022/04/17 10:35:26;;;;;;;;;;;;;;;10.93;71.80;94747.59;5136562;27;1024;-49
2022/04/17 10:38:04;;;;;;;;;;;;;;;10.98;72.69;94744.38;5136412;27;1028;-48
2022/04/17 10:40:31;;;;;;;;;;;;;;;10.91;73.81;94738.09;5136792;27;1144;-48
2022/04/17 10:42:59;;;;;;;;;;;;;;;10.92;72.76;94737.06;5136449;27;1895;-48
2022/04/17 10:45:26;;;;;;;;;;;;;;;10.92;73.20;94734.38;5136425;27;980;-48
2022/04/17 10:48:02;;;;;;;;;;;;;;;10.94;72.41;94737.72;5136237;27;1008;-49
2022/04/17 10:50:40;;;;;;;;;;;;;;;10.75;73.20;94737.09;5136049;27;1020;-48
2022/04/17 10:53:24;;;;;;;;;;;;;;;10.77;72.88;94733.44;5136238;27;1106;-48
2022/04/17 10:56:03;;;;;;;;;;;;;;;10.74;73.92;94734.63;5136425;27;955;-49
2022/04/17 10:58:44;;;;;;;;;;;;;;;10.81;73.67;94732.91;5136219;27;1906;-48
2022/04/17 11:01:11;;;;;;;;;;;;;;;10.88;73.23;94730.41;5136190;27;1043;-48
2022/04/17 11:03:38;;;;;;;;;;;;;;;10.92;72.19;94718.34;5136239;27;1015;-49
2022/04/17 11:06:24;;;;;;;;;;;;;;;10.89;72.63;94724.06;5135838;27;1090;-49
2022/04/17 11:08:56;;;;;;;;;;;;;;;10.84;73.26;94713.03;5136102;27;1274;-48
2022/04/17 11:11:22;;;;;;;;;;;;;;;10.92;72.89;94712.97;5135862;27;1063;-49
2022/04/17 11:14:07;;;;;;;;;;;;;;;10.94;73.29;94714.47;5135899;27;957;-49
2022/04/17 11:16:37;;;;;;;;;;;;;;;10.90;74.39;94715.00;5135797;27;1004;-49
2022/04/17 11:19:03;;;;;;;;;;;;;;;10.85;74.53;94712.88;5135817;27;1906;-49
2022/04/17 11:21:50;;;;;;;;;;;;;;;10.84;74.76;94713.03;5135478;27;1083;-49
2022/04/17 11:24:16;;;;;;;;;;;;;;;10.83;74.27;94717.56;5135447;27;1238;-49
2022/04/17 11:26:54;;;;;;;;;;;;;;;10.81;74.67;94714.19;5135805;27;1028;-49
2022/04/17 11:29:39;;;;;;;;;;;;;;;10.77;74.18;94707.53;5135469;27;1051;-48
2022/04/17 11:32:17;;;;;;;;;;;;;;;10.73;74.77;94701.69;5135337;27;1032;-49
2022/04/17 11:34:43;;;;;;;;;;;;;;;10.71;75.57;94708.22;5135225;27;1087;-49
2022/04/17 11:37:09;;;;;;;;;;;;;;;10.68;75.21;94698.72;5135242;27;994;-49
2022/04/17 11:39:36;;;;;;;;;;;;;;;10.63;74.78;94695.72;5135225;27;1906;-49
2022/04/17 11:42:03;;;;;;;;;;;;;;;10.54;75.41;94697.56;5135165;27;969;-49
2022/04/17 11:44:30;;;;;;;;;;;;;;;10.53;75.93;94692.44;5135432;27;957;-48
2022/04/17 11:46:56;;;;;;;;;;;;;;;10.59;75.06;94689.06;5135350;27;1015;-49
2022/04/17 11:49:24;;;;;;;;;;;;;;;10.44;75.95;94691.59;5135212;27;956;-49
2022/04/17 11:51:50;;;;;;;;;;;;;;;10.46;75.16;94694.13;5135135;27;1019;-49
2022/04/17 11:54:31;;;;;;;;;;;;;;;10.48;75.23;94690.25;5135495;27;977;-49
2022/04/17 11:56:58;;;;;;;;;;;;;;;10.41;75.20;94683.09;5135222;27;1109;-49
2022/04/17 11:59:24;;;;;;;;;;;;;;;10.49;74.55;94677.72;5135122;27;1902;-49
2022/04/17 12:02:09;;;;;;;;;;;;;;;10.57;74.02;94684.88;5134805;27;987;-49
2022/04/17 12:04:38;;;;;;;;;;;;;;;10.46;75.67;94683.41;5134869;27;1060;-49
2022/04/17 12:07:04;;;;;;;;;;;;;;;10.50;74.39;94685.56;5134971;27;1040;-49
2022/04/17 12:09:30;;;;;;;;;;;;;;;10.44;75.25;94685.44;5134826;27;1039;-49
2022/04/17 12:11:56;;;;;;;;;;;;;;;10.45;72.93;94682.59;5134738;27;1072;-49
2022/04/17 12:14:29;;;;;;;;;;;;;;;10.46;74.60;94672.72;5134863;27;968;-48
2022/04/17 12:16:55;;;;;;;;;;;;;;;10.56;73.16;94670.69;5134855;27;1039;-48
2022/04/17 12:19:21;;;;;;;;;;;;;;;10.58;73.62;94659.81;5134822;27;1905;-48
2022/04/17 12:21:47;;;;;;;;;;;;;;;10.52;73.61;94672.84;5134338;27;928;-49
2022/04/17 12:24:14;;;;;;;;;;;;;;;10.47;74.13;94671.72;3257544;27;2269;-48
2022/04/17 12:26:41;;;;;;;;;;;;;;;10.50;73.63;94677.53;5134477;27;2012;-49
2022/04/17 12:29:08;;;;;;;;;;;;;;;10.39;73.57;94677.91;5134801;27;1070;-48
2022/04/17 12:31:34;;;;;;;;;;;;;;;10.37;74.37;94665.75;5134470;27;1111;-49
2022/04/17 12:34:10;;;;;;;;;;;;;;;10.37;74.21;94658.56;5134515;27;1051;-48
2022/04/17 12:36:42;;;;;;;;;;;;;;;10.33;75.01;94660.72;5134555;28;1038;-48
2022/04/17 12:39:08;;;;;;;;;;;;;;;10.38;74.10;94660.22;5134624;28;1917;-48
2022/04/17 12:41:40;;;;;;;;;;;;;;;10.29;73.54;94659.38;5134510;28;961;-49
2022/04/17 12:44:07;;;;;;;;;;;;;;;10.23;72.97;94657.41;5134323;28;1079;-48
2022/04/17 12:46:33;;;;;;;;;;;;;;;10.27;73.07;94655.22;5134614;28;1041;-48
2022/04/17 12:49:03;;;;;;;;;;;;;;;10.25;73.69;94666.06;5134239;28;956;-48
2022/04/17 12:51:29;;;;;;;;;;;;;;;10.22;73.97;94653.03;5134506;28;1039;-48
2022/04/17 12:53:55;;;;;;;;;;;;;;;10.16;73.23;94654.56;5134209;28;1115;-49
2022/04/17 12:56:24;;;;;;;;;;;;;;;10.22;73.27;94644.19;5134187;28;1136;-49
2022/04/17 12:58:54;;;;;;;;;;;;;;;10.21;74.08;94648.72;5134393;27;1921;-49
2022/04/17 13:01:30;;;;;;;;;;;;;;;10.24;72.92;94647.53;5134163;28;1015;-49
2022/04/17 13:04:06;;;;;;;;;;;;;;;10.27;72.49;94640.00;5134507;28;1014;-49
2022/04/17 13:06:32;;;;;;;;;;;;;;;10.17;73.22;94639.38;5134446;28;972;-49
2022/04/17 13:09:02;;;;;;;;;;;;;;;10.12;73.67;94639.06;5134156;28;1196;-49
2022/04/17 13:11:35;;;;;;;;;;;;;;;10.06;72.49;94640.56;5134546;27;1016;-49
2022/04/17 13:14:02;;;;;;;;;;;;;;;10.11;71.94;94640.03;5138061;27;1245;-49
2022/04/17 13:16:32;;;;;;;;;;;;;;;10.07;72.03;94642.25;5138322;27;971;-49
2022/04/17 13:18:58;;;;;;;;;;;;;;;10.03;72.90;94634.72;5138175;27;1913;-49
2022/04/17 13:21:24;;;;;;;;;;;;;;;10.04;73.41;94636.41;5138174;27;1058;-48